Time;durP1;ratioP1;P1;durP2;ratioP2;P2;SDS_P1;SDS_P2;PMS_P1;PMS_P2;Temp;Humidity;BMP_temperature;BMP_pressure;BME280_temperature;BME280_humidity;BME280_pressure;Samples;Min_cycle;Max_cycle;Signal;HPM_P1;HPM_P2
2022/06/07 00:02:08;;;;;;;7.93;7.43;;;;;;;;;;4953566;29;20510;-91
2022/06/07 00:04:35;;;;;;;7.93;7.30;;;;;;;;;;4942165;29;20545;-91
2022/06/07 00:07:01;;;;;;;8.07;7.47;;;;;;;;;;4954370;29;20451;-92
2022/06/07 00:09:27;;;;;;;7.97;7.53;;;;;;;;;;4952260;29;20423;-91
2022/06/07 00:11:53;;;;;;;9.03;8.43;;;;;;;;;;4950236;29;20458;-88
2022/06/07 00:14:19;;;;;;;9.50;8.90;;;;;;;;;;4940038;29;20465;-92
2022/06/07 00:16:45;;;;;;;8.63;7.47;;;;;;;;;;4939003;29;20447;-91
2022/06/07 00:19:14;;;;;;;10.13;9.43;;;;;;;;;;4955592;29;20469;-92
2022/06/07 00:21:39;;;;;;;10.17;9.30;;;;;;;;;;4948520;29;20443;-91
2022/06/07 00:24:06;;;;;;;8.90;8.30;;;;;;;;;;4935195;29;20553;-91
2022/06/07 00:26:32;;;;;;;9.53;8.57;;;;;;;;;;4953475;29;20458;-92
2022/06/07 00:28:59;;;;;;;9.60;9.00;;;;;;;;;;4952725;29;20470;-92
2022/06/07 00:31:25;;;;;;;8.77;8.10;;;;;;;;;;4947759;29;20467;-91
2022/06/07 00:33:51;;;;;;;9.40;8.60;;;;;;;;;;4917979;29;20520;-92
2022/06/07 00:36:18;;;;;;;9.77;8.87;;;;;;;;;;4933236;29;20510;-92
2022/06/07 00:38:44;;;;;;;9.00;8.30;;;;;;;;;;4946438;29;20451;-91
2022/06/07 00:41:10;;;;;;;9.30;8.50;;;;;;;;;;4929825;29;20435;-92
2022/06/07 00:43:37;;;;;;;9.17;8.57;;;;;;;;;;4937419;29;20803;-92
2022/06/07 00:46:10;;;;;;;9.73;8.83;;;;;;;;;;4947676;29;20463;-91
2022/06/07 00:48:37;;;;;;;10.03;9.17;;;;;;;;;;4924369;29;20467;-92
2022/06/07 00:51:04;;;;;;;9.60;8.90;;;;;;;;;;4903153;29;20474;-91
2022/06/07 00:53:39;;;;;;;9.27;8.67;;;;;;;;;;4919101;29;20471;-92
2022/06/07 00:56:06;;;;;;;8.60;8.10;;;;;;;;;;4922076;29;20427;-92
2022/06/07 00:58:33;;;;;;;9.73;8.90;;;;;;;;;;4916033;29;20455;-92
2022/06/07 01:00:59;;;;;;;9.07;8.40;;;;;;;;;;4907400;29;20506;-92
2022/06/07 01:03:25;;;;;;;8.57;7.87;;;;;;;;;;4920390;29;20440;-91
2022/06/07 01:05:51;;;;;;;8.90;8.30;;;;;;;;;;4925011;29;20781;-93
2022/06/07 01:11:02;;;;;;;8.90;8.17;;;;;;;;;;4919426;29;20578;-91
2022/06/07 01:13:32;;;;;;;9.23;8.50;;;;;;;;;;4902769;29;20444;-92
2022/06/07 01:16:01;;;;;;;9.77;8.90;;;;;;;;;;4901023;29;20443;-92
2022/06/07 01:18:34;;;;;;;9.73;9.13;;;;;;;;;;4917244;29;21178;-91
2022/06/07 01:21:32;;;;;;;10.30;9.50;;;;;;;;;;4902123;29;20452;-92
2022/06/07 01:23:58;;;;;;;10.40;9.40;;;;;;;;;;4867414;29;20448;-92
2022/06/07 01:26:24;;;;;;;9.60;8.87;;;;;;;;;;4903392;29;20503;-92
2022/06/07 01:28:50;;;;;;;9.97;9.10;;;;;;;;;;4899836;29;20455;-92
2022/06/07 01:31:16;;;;;;;8.17;7.67;;;;;;;;;;4917170;29;20476;-93
2022/06/07 01:33:42;;;;;;;9.63;8.80;;;;;;;;;;4899082;29;20448;-93
2022/06/07 01:36:13;;;;;;;8.87;8.20;;;;;;;;;;4901356;29;20451;-92
2022/06/07 01:38:40;;;;;;;9.27;8.53;;;;;;;;;;4906231;29;20448;-93
2022/06/07 01:43:52;;;;;;;10.10;9.30;;;;;;;;;;4917514;29;20939;-92
2022/06/07 01:46:18;;;;;;;9.10;8.20;;;;;;;;;;4904675;29;20428;-91
2022/06/07 01:48:46;;;;;;;11.17;10.17;;;;;;;;;;4919313;29;20481;-92
2022/06/07 01:51:12;;;;;;;9.97;9.17;;;;;;;;;;4892056;29;20464;-92
2022/06/07 01:53:39;;;;;;;11.53;9.87;;;;;;;;;;4898961;29;20532;-91
2022/06/07 01:56:06;;;;;;;8.50;7.90;;;;;;;;;;4914971;29;20447;-91
2022/06/07 01:58:33;;;;;;;10.00;9.10;;;;;;;;;;4923771;29;20432;-91
2022/06/07 02:00:59;;;;;;;10.17;8.53;;;;;;;;;;4918240;29;20506;-88
2022/06/07 02:03:25;;;;;;;10.47;9.63;;;;;;;;;;4895778;29;20966;-88
2022/06/07 02:05:55;;;;;;;9.30;8.60;;;;;;;;;;4897219;29;20430;-88
2022/06/07 02:08:21;;;;;;;13.07;9.73;;;;;;;;;;4907434;29;20432;-88
2022/06/07 02:10:46;;;;;;;10.07;9.10;;;;;;;;;;4913747;29;21062;-88
2022/06/07 02:13:12;;;;;;;10.03;9.13;;;;;;;;;;4908443;29;20436;-88
2022/06/07 02:15:38;;;;;;;10.53;9.73;;;;;;;;;;4913918;29;20424;-87
2022/06/07 02:18:04;;;;;;;8.80;8.20;;;;;;;;;;4911809;29;20444;-87
2022/06/07 02:20:31;;;;;;;9.00;8.37;;;;;;;;;;4896761;29;20440;-87
2022/06/07 02:22:57;;;;;;;9.20;8.33;;;;;;;;;;4899784;29;20468;-87
2022/06/07 02:25:23;;;;;;;11.30;8.17;;;;;;;;;;4910526;29;20495;-87
2022/06/07 02:27:49;;;;;;;8.77;8.07;;;;;;;;;;4895522;29;20881;-88
2022/06/07 02:30:15;;;;;;;6.47;6.17;;;;;;;;;;4912285;29;20432;-88
2022/06/07 02:32:41;;;;;;;8.40;7.87;;;;;;;;;;4899499;29;20502;-87
2022/06/07 02:35:08;;;;;;;8.40;7.80;;;;;;;;;;4898704;29;20456;-88
2022/06/07 02:37:35;;;;;;;7.77;7.20;;;;;;;;;;4911951;29;20431;-87
2022/06/07 02:40:02;;;;;;;7.50;7.00;;;;;;;;;;4898976;29;20856;-87
2022/06/07 02:42:29;;;;;;;9.13;7.50;;;;;;;;;;4895307;29;20444;-88
2022/06/07 02:44:56;;;;;;;9.47;8.50;;;;;;;;;;4912399;29;20479;-88
2022/06/07 02:47:22;;;;;;;7.30;7.00;;;;;;;;;;4895685;29;20511;-88
2022/06/07 02:49:48;;;;;;;6.50;6.13;;;;;;;;;;4911741;29;20496;-88
2022/06/07 02:52:14;;;;;;;7.37;6.77;;;;;;;;;;4902232;29;20475;-87
2022/06/07 02:54:40;;;;;;;7.37;6.70;;;;;;;;;;4896548;29;20432;-88
2022/06/07 02:57:06;;;;;;;8.40;6.50;;;;;;;;;;4894644;29;20442;-88
2022/06/07 02:59:33;;;;;;;7.80;7.10;;;;;;;;;;4896516;29;20814;-88
2022/06/07 03:01:59;;;;;;;7.70;7.20;;;;;;;;;;4894859;29;20439;-88
2022/06/07 03:04:25;;;;;;;7.63;6.83;;;;;;;;;;4911574;29;20440;-88
2022/06/07 03:06:50;;;;;;;6.50;6.20;;;;;;;;;;4896375;29;20446;-88
2022/06/07 03:09:16;;;;;;;6.00;5.60;;;;;;;;;;4894916;29;20444;-88
2022/06/07 03:11:42;;;;;;;7.43;6.17;;;;;;;;;;4913476;29;20954;-88
2022/06/07 03:14:10;;;;;;;6.47;5.90;;;;;;;;;;4909944;29;20519;-88
2022/06/07 03:16:36;;;;;;;6.07;5.77;;;;;;;;;;4911052;29;20432;-88
2022/06/07 03:19:02;;;;;;;6.00;5.50;;;;;;;;;;4894182;29;20440;-89
2022/06/07 03:21:28;;;;;;;5.57;5.20;;;;;;;;;;4896687;29;21106;-88
2022/06/07 03:23:57;;;;;;;6.33;4.93;;;;;;;;;;4890909;29;20447;-88
2022/06/07 03:26:23;;;;;;;5.53;5.20;;;;;;;;;;4879257;29;20493;-87
2022/06/07 03:28:49;;;;;;;5.87;5.40;;;;;;;;;;4895323;29;20440;-88
2022/06/07 03:31:16;;;;;;;5.73;5.37;;;;;;;;;;4912054;29;20497;-87
2022/06/07 03:33:43;;;;;;;5.67;5.23;;;;;;;;;;4921373;29;20456;-93
2022/06/07 03:36:20;;;;;;;5.70;5.20;;;;;;;;;;4927668;29;20483;-92
2022/06/07 03:39:07;;;;;;;5.47;4.83;;;;;;;;;;4913837;29;20456;-92
2022/06/07 03:41:33;;;;;;;6.17;5.80;;;;;;;;;;4899017;29;20419;-93
2022/06/07 03:44:02;;;;;;;5.33;4.90;;;;;;;;;;4917652;29;20444;-91
2022/06/07 03:46:57;;;;;;;;;;;;;;;;;;;;;
2022/06/07 03:49:25;;;;;;;4.90;4.67;;;;;;;;;;4938667;29;20479;-93
2022/06/07 03:51:51;;;;;;;5.10;4.90;;;;;;;;;;4931624;29;20502;-94
2022/06/07 03:54:18;;;;;;;4.67;4.23;;;;;;;;;;4932477;29;20470;-94
2022/06/07 03:56:49;;;;;;;5.10;4.80;;;;;;;;;;4934222;29;20462;-92
2022/06/07 03:59:19;;;;;;;4.53;4.23;;;;;;;;;;4932043;29;20439;-94
2022/06/07 04:10:18;;;;;;;4.60;4.30;;;;;;;;;;4609237;29;10001986;-92
2022/06/07 04:12:44;;;;;;;5.10;4.67;;;;;;;;;;4918074;29;20561;-92
2022/06/07 04:15:11;;;;;;;4.33;4.13;;;;;;;;;;4942278;28;20481;-94
2022/06/07 04:20:38;;;;;;;6.33;4.47;;;;;;;;;;5065585;23;20511;-93
2022/06/07 04:23:05;;;;;;;4.10;3.73;;;;;;;;;;4982473;28;20449;-90
2022/06/07 04:25:40;;;;;;;4.67;3.90;;;;;;;;;;5132499;23;20469;-93
2022/06/07 04:33:24;;;;;;;4.40;4.20;;;;;;;;;;4936333;29;20459;-92
2022/06/07 04:38:35;;;;;;;3.00;2.80;;;;;;;;;;5187154;23;20518;-93
2022/06/07 04:43:40;;;;;;;3.50;3.40;;;;;;;;;;5135143;23;20549;-92
2022/06/07 04:56:37;;;;;;;3.60;3.10;;;;;;;;;;5363513;23;20501;-91
2022/06/07 05:01:54;;;;;;;3.07;2.77;;;;;;;;;;5410991;23;20488;-92
2022/06/07 05:04:28;;;;;;;3.87;3.33;;;;;;;;;;4956195;28;20423;-95
2022/06/07 05:07:03;;;;;;;2.50;2.50;;;;;;;;;;5339930;23;21679;-92
2022/06/07 05:14:47;;;;;;;2.90;2.90;;;;;;;;;;5046594;23;20532;-93
2022/06/07 05:17:17;;;;;;;3.50;3.10;;;;;;;;;;5277741;23;20683;-90
2022/06/07 05:19:46;;;;;;;3.30;2.60;;;;;;;;;;4951267;28;20424;-92
2022/06/07 05:25:01;;;;;;;2.50;2.40;;;;;;;;;;5037387;23;20510;-91
2022/06/07 05:27:34;;;;;;;3.17;3.00;;;;;;;;;;5200297;23;20491;-93
2022/06/07 05:30:05;;;;;;;2.80;2.70;;;;;;;;;;4920281;29;20515;-93
2022/06/07 05:32:31;;;;;;;3.73;3.00;;;;;;;;;;4932001;29;20586;-92
2022/06/07 05:40:07;;;;;;;2.40;2.33;;;;;;;;;;5189289;23;20498;-92
2022/06/07 05:42:36;;;;;;;3.00;2.40;;;;;;;;;;5182302;23;20509;-92
2022/06/07 05:47:51;;;;;;;2.90;2.80;;;;;;;;;;5103482;23;20769;-91
2022/06/07 05:50:22;;;;;;;2.73;2.63;;;;;;;;;;5330130;23;20465;-91
2022/06/07 05:58:03;;;;;;;6.30;2.80;;;;;;;;;;5414812;23;20477;-92
2022/06/07 06:06:08;;;;;;;3.33;2.50;;;;;;;;;;4825742;23;10000871;-91
2022/06/07 06:11:35;;;;;;;2.50;2.30;;;;;;;;;;5269022;23;20462;-92
2022/06/07 06:14:01;;;;;;;2.50;2.40;;;;;;;;;;4956918;28;20481;-92
2022/06/07 06:16:37;;;;;;;4.23;3.00;;;;;;;;;;4950266;29;20505;-92
2022/06/07 06:19:03;;;;;;;2.03;1.93;;;;;;;;;;4944047;28;20486;-92
2022/06/07 06:21:37;;;;;;;3.03;2.17;;;;;;;;;;4929114;28;20459;-93
2022/06/07 06:24:15;;;;;;;3.03;2.60;;;;;;;;;;4924370;29;20473;-94
2022/06/07 06:26:44;;;;;;;4.47;2.73;;;;;;;;;;4928472;29;20465;-92
2022/06/07 06:29:16;;;;;;;3.97;2.60;;;;;;;;;;5000467;23;20427;-85
2022/06/07 06:32:13;;;;;;;2.40;2.20;;;;;;;;;;5227877;23;20509;-93
2022/06/07 06:35:09;;;;;;;3.57;2.20;;;;;;;;;;5275470;23;20498;-93
2022/06/07 06:37:54;;;;;;;;;;;;;;;;;;;;;
2022/06/07 06:40:32;;;;;;;15.87;13.83;;;;;;;;;;4932156;29;20440;-92
2022/06/07 06:42:58;;;;;;;2.00;1.90;;;;;;;;;;4943111;29;20534;-88
2022/06/07 06:45:24;;;;;;;4.20;2.80;;;;;;;;;;4952009;29;20439;-90
2022/06/07 06:47:51;;;;;;;5.17;4.93;;;;;;;;;;4955475;29;20439;-93
2022/06/07 06:50:17;;;;;;;1.90;1.80;;;;;;;;;;4955865;29;20608;-91
2022/06/07 06:52:45;;;;;;;2.47;2.47;;;;;;;;;;4951437;29;20493;-92
2022/06/07 06:55:14;;;;;;;2.37;2.20;;;;;;;;;;4961076;29;20434;-93
2022/06/07 06:57:41;;;;;;;2.10;2.00;;;;;;;;;;4948664;29;20496;-89
2022/06/07 07:00:09;;;;;;;1.90;1.90;;;;;;;;;;4951176;29;20430;-94
2022/06/07 07:02:42;;;;;;;1.93;1.83;;;;;;;;;;4949188;29;20517;-94
2022/06/07 07:05:18;;;;;;;3.67;1.80;;;;;;;;;;4958817;29;20510;-93
2022/06/07 07:07:46;;;;;;;2.07;1.97;;;;;;;;;;4950617;28;20434;-91
2022/06/07 07:10:38;;;;;;;2.53;2.33;;;;;;;;;;4936963;29;20422;-94
2022/06/07 07:13:14;;;;;;;;;;;;;;;;;;;;;
2022/06/07 07:15:48;;;;;;;1.70;1.70;;;;;;;;;;4932508;29;20470;-92
2022/06/07 07:18:14;;;;;;;1.60;1.50;;;;;;;;;;4960131;29;20430;-92
2022/06/07 07:20:41;;;;;;;4.63;2.07;;;;;;;;;;4969078;29;20541;-94
2022/06/07 07:23:12;;;;;;;3.40;2.03;;;;;;;;;;4951264;29;20427;-94
2022/06/07 07:25:59;;;;;;;3.10;2.43;;;;;;;;;;4938543;29;20514;-94
2022/06/07 07:28:40;;;;;;;4.03;2.37;;;;;;;;;;4926316;29;20424;-94
2022/06/07 07:31:09;;;;;;;2.37;2.23;;;;;;;;;;4919975;29;20463;-91
2022/06/07 07:33:41;;;;;;;2.27;2.17;;;;;;;;;;4947207;29;20607;-91
2022/06/07 07:36:13;;;;;;;3.60;2.10;;;;;;;;;;4935580;29;20647;-93
2022/06/07 07:38:44;;;;;;;1.87;1.87;;;;;;;;;;4960142;29;20926;-93
2022/06/07 07:41:19;;;;;;;2.13;2.03;;;;;;;;;;4939266;29;20465;-93
2022/06/07 07:43:51;;;;;;;2.07;1.97;;;;;;;;;;4957536;28;20425;-92
2022/06/07 07:46:18;;;;;;;1.97;1.87;;;;;;;;;;4965650;28;20423;-90
2022/06/07 07:48:44;;;;;;;2.20;2.00;;;;;;;;;;4958788;29;20893;-92
2022/06/07 07:51:14;;;;;;;1.90;1.90;;;;;;;;;;4966821;28;20492;-92
2022/06/07 07:53:43;;;;;;;2.40;1.90;;;;;;;;;;4943394;29;20790;-91
2022/06/07 07:56:10;;;;;;;1.80;1.70;;;;;;;;;;4944029;29;20437;-92
2022/06/07 07:58:37;;;;;;;2.43;2.33;;;;;;;;;;4960538;29;20437;-91
2022/06/07 08:01:13;;;;;;;2.03;1.67;;;;;;;;;;4932734;29;20457;-94
2022/06/07 08:03:39;;;;;;;1.70;1.70;;;;;;;;;;4947462;29;20425;-92
2022/06/07 08:06:19;;;;;;;2.17;2.10;;;;;;;;;;4971206;28;20826;-92
2022/06/07 08:09:10;;;;;;;2.63;2.53;;;;;;;;;;4935752;29;20438;-92
2022/06/07 08:11:41;;;;;;;1.73;1.63;;;;;;;;;;4936165;29;20470;-92
2022/06/07 08:14:09;;;;;;;2.07;1.97;;;;;;;;;;4998213;28;20440;-90
2022/06/07 08:16:36;;;;;;;2.13;2.03;;;;;;;;;;4980457;28;20485;-89
2022/06/07 08:19:02;;;;;;;1.97;1.97;;;;;;;;;;4956124;29;20430;-90
2022/06/07 08:21:30;;;;;;;2.13;2.00;;;;;;;;;;4971469;29;20553;-91
2022/06/07 08:24:05;;;;;;;1.67;1.67;;;;;;;;;;4972388;28;20741;-92
2022/06/07 08:26:32;;;;;;;1.77;1.67;;;;;;;;;;4952968;29;20445;-92
2022/06/07 08:29:02;;;;;;;2.10;1.67;;;;;;;;;;4965474;28;20441;-90
2022/06/07 08:31:31;;;;;;;1.93;1.93;;;;;;;;;;4956304;29;20450;-93
2022/06/07 08:39:34;;;;;;;2.90;2.67;;;;;;;;;;4932482;29;20604;-90
2022/06/07 08:42:22;;;;;;;3.07;1.77;;;;;;;;;;4972131;29;20394;-91
2022/06/07 08:44:54;;;;;;;1.50;1.40;;;;;;;;;;4929928;29;20947;-90
2022/06/07 08:47:49;;;;;;;1.77;1.77;;;;;;;;;;4927843;29;20431;-92
2022/06/07 08:50:25;;;;;;;1.80;1.70;;;;;;;;;;4934236;29;21022;-91
2022/06/07 08:53:00;;;;;;;2.00;1.90;;;;;;;;;;4928829;29;20475;-92
2022/06/07 08:55:29;;;;;;;2.20;2.10;;;;;;;;;;4929795;29;20924;-91
2022/06/07 08:58:21;;;;;;;2.13;2.03;;;;;;;;;;4964264;29;20438;-91
2022/06/07 09:00:50;;;;;;;1.90;1.80;;;;;;;;;;4897929;29;20973;-89
2022/06/07 09:03:37;;;;;;;2.10;1.70;;;;;;;;;;4923079;29;20442;-90
2022/06/07 09:06:04;;;;;;;2.20;2.10;;;;;;;;;;4945927;29;20642;-90
2022/06/07 09:08:40;;;;;;;1.63;1.60;;;;;;;;;;4951335;29;20446;-92
2022/06/07 09:13:53;;;;;;;1.83;1.73;;;;;;;;;;4949022;29;20436;-89
2022/06/07 09:16:22;;;;;;;1.90;1.73;;;;;;;;;;4946451;29;20947;-92
2022/06/07 09:19:01;;;;;;;2.53;1.77;;;;;;;;;;4954818;29;21017;-89
2022/06/07 09:21:29;;;;;;;3.30;2.03;;;;;;;;;;4912638;29;20463;-90
2022/06/07 09:23:56;;;;;;;2.30;2.00;;;;;;;;;;4968507;28;20477;-92
2022/06/07 09:26:31;;;;;;;2.80;2.60;;;;;;;;;;4947573;29;20494;-92
2022/06/07 09:29:20;;;;;;;2.10;2.10;;;;;;;;;;4950010;28;20422;-89
2022/06/07 09:31:47;;;;;;;2.83;2.57;;;;;;;;;;4970000;29;20446;-91
2022/06/07 09:34:37;;;;;;;1.90;1.90;;;;;;;;;;4953459;29;20466;-90
2022/06/07 09:37:08;;;;;;;1.97;1.93;;;;;;;;;;4922855;29;20435;-89
2022/06/07 09:39:48;;;;;;;2.10;2.00;;;;;;;;;;4953550;29;20434;-90
2022/06/07 09:42:17;;;;;;;2.20;2.00;;;;;;;;;;4947108;29;20512;-89
2022/06/07 09:44:59;;;;;;;2.97;2.10;;;;;;;;;;4940628;29;20442;-90
2022/06/07 09:47:26;;;;;;;2.57;2.37;;;;;;;;;;4949162;29;20443;-90
2022/06/07 09:49:55;;;;;;;2.03;1.93;;;;;;;;;;4962439;29;20981;-90
2022/06/07 09:52:31;;;;;;;2.10;2.10;;;;;;;;;;4961749;29;20488;-89
2022/06/07 09:55:04;;;;;;;2.73;2.10;;;;;;;;;;4955247;29;20461;-89
2022/06/07 09:57:49;;;;;;;2.10;2.10;;;;;;;;;;4941396;29;20450;-90
2022/06/07 10:00:19;;;;;;;2.47;2.37;;;;;;;;;;4926062;29;20798;-90
2022/06/07 10:02:48;;;;;;;2.00;1.90;;;;;;;;;;4947059;29;20438;-94
2022/06/07 10:05:22;;;;;;;2.03;2.03;;;;;;;;;;4973294;29;20434;-91
2022/06/07 10:07:57;;;;;;;2.50;2.13;;;;;;;;;;4937760;29;20423;-93
2022/06/07 10:13:20;;;;;;;2.83;2.67;;;;;;;;;;4954841;29;20430;-94
2022/06/07 10:15:57;;;;;;;2.63;2.43;;;;;;;;;;4946541;29;20555;-93
2022/06/07 10:18:42;;;;;;;1.97;1.90;;;;;;;;;;4970140;29;20430;-94
2022/06/07 10:21:26;;;;;;;2.00;2.00;;;;;;;;;;4932999;29;20443;-95
2022/06/07 10:24:05;;;;;;;1.60;1.60;;;;;;;;;;4968861;29;20435;-94
2022/06/07 10:26:35;;;;;;;1.97;1.87;;;;;;;;;;4953213;28;20882;-93
2022/06/07 10:29:09;;;;;;;4.50;2.80;;;;;;;;;;4940002;29;20438;-95
2022/06/07 10:31:51;;;;;;;1.90;1.70;;;;;;;;;;4966782;28;20482;-94
2022/06/07 10:34:23;;;;;;;1.93;1.80;;;;;;;;;;4966523;29;20517;-89
2022/06/07 10:36:52;;;;;;;2.07;1.87;;;;;;;;;;4969201;29;20438;-93
2022/06/07 10:39:25;;;;;;;1.93;1.93;;;;;;;;;;4955017;28;20902;-96
2022/06/07 10:42:00;;;;;;;1.67;1.57;;;;;;;;;;4941550;29;20458;-94
2022/06/07 10:44:33;;;;;;;2.57;1.60;;;;;;;;;;4930990;29;20509;-92
2022/06/07 10:47:20;;;;;;;2.10;2.10;;;;;;;;;;4953294;29;20462;-90
2022/06/07 10:49:49;;;;;;;1.77;1.70;;;;;;;;;;4913886;29;20805;-94
2022/06/07 10:52:25;;;;;;;2.30;1.90;;;;;;;;;;4946747;28;20526;-92
2022/06/07 10:55:02;;;;;;;1.70;1.60;;;;;;;;;;4946448;29;20418;-91
2022/06/07 10:57:47;;;;;;;2.60;2.10;;;;;;;;;;4959679;29;20544;-91
2022/06/07 11:00:19;;;;;;;1.60;1.60;;;;;;;;;;4922806;29;20420;-91
2022/06/07 11:02:54;;;;;;;1.90;1.90;;;;;;;;;;4964589;29;20458;-90
2022/06/07 11:11:08;;;;;;;1.93;1.83;;;;;;;;;;4944778;29;20605;-91
2022/06/07 11:13:40;;;;;;;1.50;1.50;;;;;;;;;;4955666;29;20430;-92
2022/06/07 11:16:16;;;;;;;2.00;1.90;;;;;;;;;;4933086;29;20427;-91
2022/06/07 11:18:42;;;;;;;2.27;2.17;;;;;;;;;;4962865;29;20438;-94
2022/06/07 11:21:08;;;;;;;2.10;1.90;;;;;;;;;;4960668;29;20423;-89
2022/06/07 11:23:38;;;;;;;2.50;2.37;;;;;;;;;;4945999;29;20426;-92
2022/06/07 11:26:14;;;;;;;2.63;2.53;;;;;;;;;;4953042;29;20458;-93
2022/06/07 11:28:41;;;;;;;2.60;2.50;;;;;;;;;;4949578;29;20437;-92
2022/06/07 11:31:16;;;;;;;2.50;2.30;;;;;;;;;;4932552;29;20501;-94
2022/06/07 11:33:48;;;;;;;1.97;1.83;;;;;;;;;;4958725;29;20449;-93
2022/06/07 11:36:14;;;;;;;1.50;1.40;;;;;;;;;;4957999;28;21009;-89
2022/06/07 11:38:56;;;;;;;1.57;1.47;;;;;;;;;;4965475;28;20450;-90
2022/06/07 11:41:46;;;;;;;2.17;2.10;;;;;;;;;;4940624;29;20437;-95
2022/06/07 11:44:14;;;;;;;2.37;2.17;;;;;;;;;;4937945;29;20445;-90
2022/06/07 11:46:40;;;;;;;2.07;1.97;;;;;;;;;;4947394;29;20430;-91
2022/06/07 11:49:19;;;;;;;1.87;1.77;;;;;;;;;;4956264;29;20488;-89
2022/06/07 11:52:00;;;;;;;1.93;1.93;;;;;;;;;;4966306;28;20453;-94
2022/06/07 11:54:26;;;;;;;2.13;1.50;;;;;;;;;;4951328;29;20474;-92
2022/06/07 11:56:53;;;;;;;1.80;1.80;;;;;;;;;;4966931;29;20434;-92
2022/06/07 11:59:19;;;;;;;1.97;1.80;;;;;;;;;;4966069;29;20501;-89
2022/06/07 12:02:04;;;;;;;5.03;2.37;;;;;;;;;;4961441;29;20457;-91
2022/06/07 12:04:47;;;;;;;1.73;1.73;;;;;;;;;;4942705;29;20434;-93
2022/06/07 12:07:24;;;;;;;2.60;2.30;;;;;;;;;;4949853;29;20502;-93
2022/06/07 12:09:55;;;;;;;1.73;1.63;;;;;;;;;;4961772;29;20445;-91
2022/06/07 12:12:31;;;;;;;1.70;1.70;;;;;;;;;;4949269;29;20466;-90
2022/06/07 12:15:03;;;;;;;2.03;1.80;;;;;;;;;;4938353;29;20457;-92
2022/06/07 12:17:30;;;;;;;2.80;2.60;;;;;;;;;;4963118;29;20533;-93
2022/06/07 12:19:58;;;;;;;1.73;1.63;;;;;;;;;;4947270;29;20497;-92
2022/06/07 12:22:25;;;;;;;1.67;1.67;;;;;;;;;;4960535;28;20441;-92
2022/06/07 12:24:59;;;;;;;1.77;1.67;;;;;;;;;;4953033;29;20442;-91
2022/06/07 12:27:30;;;;;;;2.17;2.07;;;;;;;;;;4955656;29;20422;-90
2022/06/07 12:30:00;;;;;;;2.10;2.00;;;;;;;;;;4953671;29;20441;-88
2022/06/07 12:32:34;;;;;;;2.10;2.00;;;;;;;;;;4959157;29;20549;-92
2022/06/07 12:35:18;;;;;;;4.53;2.60;;;;;;;;;;4940181;29;20470;-92
2022/06/07 12:37:46;;;;;;;2.03;1.93;;;;;;;;;;4956553;29;20438;-91
2022/06/07 12:40:21;;;;;;;2.23;2.13;;;;;;;;;;4951765;29;20461;-92
2022/06/07 12:42:48;;;;;;;2.30;2.20;;;;;;;;;;4953197;29;20533;-90
2022/06/07 12:45:26;;;;;;;2.10;2.00;;;;;;;;;;4959482;29;20454;-89
2022/06/07 12:47:58;;;;;;;2.27;2.27;;;;;;;;;;4968169;29;20538;-90
2022/06/07 12:50:29;;;;;;;2.17;2.17;;;;;;;;;;4955902;29;20481;-89
2022/06/07 12:52:55;;;;;;;3.33;3.03;;;;;;;;;;4947165;29;20501;-90
2022/06/07 12:55:27;;;;;;;4.33;2.93;;;;;;;;;;4952266;29;20438;-90
2022/06/07 12:57:55;;;;;;;2.93;2.73;;;;;;;;;;4950415;29;20482;-87
2022/06/07 13:00:23;;;;;;;4.13;3.00;;;;;;;;;;4971263;29;21068;-89
2022/06/07 13:02:54;;;;;;;4.60;3.87;;;;;;;;;;4966812;29;20435;-88
2022/06/07 13:05:22;;;;;;;3.80;3.60;;;;;;;;;;4960329;29;20930;-89
2022/06/07 13:07:56;;;;;;;3.37;2.87;;;;;;;;;;4266278;29;10000660;-90
2022/06/07 13:10:24;;;;;;;6.23;4.40;;;;;;;;;;4951133;29;20206;-89
2022/06/07 13:12:54;;;;;;;5.50;4.10;;;;;;;;;;4944915;29;20474;-88
2022/06/07 13:15:43;;;;;;;2.93;2.73;;;;;;;;;;4951948;29;20430;-87
2022/06/07 13:18:15;;;;;;;3.03;2.80;;;;;;;;;;4934853;29;20487;-90
2022/06/07 13:20:46;;;;;;;2.73;2.30;;;;;;;;;;4954794;29;20454;-88
2022/06/07 13:23:12;;;;;;;2.73;2.63;;;;;;;;;;4945850;29;20538;-90
2022/06/07 13:25:38;;;;;;;3.30;3.30;;;;;;;;;;4947408;29;20675;-91
2022/06/07 13:28:04;;;;;;;4.37;3.10;;;;;;;;;;4929159;29;20450;-92
2022/06/07 13:30:34;;;;;;;2.80;2.70;;;;;;;;;;4927159;29;20810;-90
2022/06/07 13:33:01;;;;;;;4.10;2.90;;;;;;;;;;4937116;29;20552;-91
2022/06/07 13:35:44;;;;;;;3.50;3.50;;;;;;;;;;4966788;28;20481;-91
2022/06/07 13:38:20;;;;;;;3.83;3.73;;;;;;;;;;4935227;29;20422;-91
2022/06/07 13:41:11;;;;;;;3.70;3.60;;;;;;;;;;4956945;29;20442;-92
2022/06/07 13:43:39;;;;;;;4.03;3.80;;;;;;;;;;4970576;28;20426;-95
2022/06/07 13:46:21;;;;;;;6.37;6.10;;;;;;;;;;5058888;23;20478;-90
2022/06/07 13:54:25;;;;;;;5.33;5.23;;;;;;;;;;4958622;28;20449;-92
2022/06/07 13:56:51;;;;;;;7.17;6.77;;;;;;;;;;4970321;28;20410;-89
2022/06/07 13:59:18;;;;;;;6.37;6.00;;;;;;;;;;4955145;28;20486;-92
2022/06/07 14:01:59;;;;;;;7.30;6.63;;;;;;;;;;4968848;28;20409;-93
2022/06/07 14:08:03;;;;;;;6.80;6.50;;;;;;;;;;4947505;29;20434;-90
2022/06/07 14:10:39;;;;;;;9.00;8.50;;;;;;;;;;4931352;29;20414;-89
2022/06/07 14:13:09;;;;;;;9.40;8.57;;;;;;;;;;4950185;29;20994;-88
2022/06/07 14:15:37;;;;;;;10.07;9.50;;;;;;;;;;4980952;28;20418;-89
2022/06/07 14:18:08;;;;;;;7.77;7.30;;;;;;;;;;4963794;29;20949;-89
2022/06/07 14:20:39;;;;;;;10.00;9.20;;;;;;;;;;4946588;29;20439;-88
2022/06/07 14:23:08;;;;;;;10.70;9.90;;;;;;;;;;4949788;29;21012;-88
2022/06/07 14:25:34;;;;;;;10.97;9.97;;;;;;;;;;4954948;28;20438;-89
2022/06/07 14:28:08;;;;;;;10.03;9.20;;;;;;;;;;4952982;29;21039;-89
2022/06/07 14:30:35;;;;;;;8.57;8.00;;;;;;;;;;4958099;28;20437;-87
2022/06/07 14:35:46;;;;;;;4.77;4.70;;;;;;;;;;5204177;23;20497;-90
2022/06/07 14:38:13;;;;;;;3.50;3.40;;;;;;;;;;4946077;29;20441;-90
2022/06/07 14:40:49;;;;;;;4.50;4.30;;;;;;;;;;4950406;29;20453;-90
2022/06/07 14:43:34;;;;;;;5.37;5.00;;;;;;;;;;4953187;29;20532;-90
2022/06/07 14:46:48;;;;;;;;;;;;;;;;;;;;;
2022/06/07 14:49:58;;;;;;;3.27;3.17;;;;;;;;;;4968320;29;20504;-92
2022/06/07 14:53:10;;;;;;;5.23;4.87;;;;;;;;;;4854671;29;20502;-91
2022/06/07 14:55:43;;;;;;;3.87;3.77;;;;;;;;;;4855690;29;20455;-91
2022/06/07 14:58:18;;;;;;;6.63;3.20;;;;;;;;;;4837406;29;20439;-90
2022/06/07 15:00:46;;;;;;;2.57;2.57;;;;;;;;;;4881085;29;20443;-89
2022/06/07 15:03:30;;;;;;;3.30;3.30;;;;;;;;;;4965106;29;20502;-90
2022/06/07 15:08:45;;;;;;;2.10;2.10;;;;;;;;;;5121067;23;20569;-87
2022/06/07 15:16:58;;;;;;;1.90;1.80;;;;;;;;;;1329302;27;21506;-90
2022/06/07 15:19:42;;;;;;;2.07;1.97;;;;;;;;;;4929002;29;20428;-91
2022/06/07 15:22:16;;;;;;;1.70;1.70;;;;;;;;;;4927348;29;20483;-89
2022/06/07 15:24:45;;;;;;;1.80;1.80;;;;;;;;;;4966912;28;20426;-90
2022/06/07 15:27:16;;;;;;;1.77;1.70;;;;;;;;;;4949695;29;20525;-91
2022/06/07 15:29:50;;;;;;;1.77;1.77;;;;;;;;;;4933520;29;20511;-91
2022/06/07 15:32:32;;;;;;;1.67;1.67;;;;;;;;;;4928503;29;20479;-88
2022/06/07 15:35:01;;;;;;;2.03;2.03;;;;;;;;;;4933177;29;20419;-91
2022/06/07 15:37:28;;;;;;;1.97;1.97;;;;;;;;;;4938052;29;20458;-91
2022/06/07 15:39:56;;;;;;;1.63;1.63;;;;;;;;;;4941448;29;20481;-91
2022/06/07 15:45:10;;;;;;;1.33;1.33;;;;;;;;;;4930529;29;20318;-89
2022/06/07 15:47:38;;;;;;;1.57;1.57;;;;;;;;;;4972948;23;20491;-89
2022/06/07 15:50:09;;;;;;;2.00;1.90;;;;;;;;;;4953535;29;20443;-92
2022/06/07 15:52:41;;;;;;;1.57;1.57;;;;;;;;;;4957552;29;20490;-90
2022/06/07 15:55:11;;;;;;;1.60;1.60;;;;;;;;;;4933731;29;20454;-88
2022/06/07 16:00:28;;;;;;;2.13;2.10;;;;;;;;;;4962165;28;20452;-94
2022/06/07 16:02:58;;;;;;;1.80;1.77;;;;;;;;;;4953246;28;20487;-93
2022/06/07 16:05:24;;;;;;;1.60;1.60;;;;;;;;;;4949643;29;20445;-89
2022/06/07 16:07:50;;;;;;;1.50;1.50;;;;;;;;;;4938957;29;20432;-93
2022/06/07 16:10:17;;;;;;;1.50;1.50;;;;;;;;;;4961619;29;20442;-92
2022/06/07 16:12:43;;;;;;;1.80;1.80;;;;;;;;;;4948106;29;20549;-91
2022/06/07 16:15:10;;;;;;;2.03;1.93;;;;;;;;;;4929384;29;20445;-91
2022/06/07 16:17:36;;;;;;;1.80;1.80;;;;;;;;;;4941837;29;20482;-91
2022/06/07 16:20:03;;;;;;;2.37;2.37;;;;;;;;;;4944773;29;20446;-88
2022/06/07 16:22:29;;;;;;;2.00;2.00;;;;;;;;;;4914089;29;20519;-90
2022/06/07 16:24:55;;;;;;;2.43;2.43;;;;;;;;;;4929203;29;20511;-88
2022/06/07 16:35:47;;;;;;;;;;;;;;;;;;;;;
2022/06/07 16:38:15;;;;;;;2.00;2.00;;;;;;;;;;4955382;29;20536;-85
2022/06/07 16:40:41;;;;;;;2.67;2.67;;;;;;;;;;4939857;29;20454;-90
2022/06/07 16:45:51;;;;;;;1.90;1.90;;;;;;;;;;4959908;29;21028;-89
2022/06/07 16:48:18;;;;;;;1.73;1.73;;;;;;;;;;4943277;29;20554;-88
2022/06/07 16:51:04;;;;;;;2.40;2.40;;;;;;;;;;4971815;28;20426;-94
2022/06/07 16:53:37;;;;;;;2.00;1.90;;;;;;;;;;4953637;29;20873;-92
2022/06/07 16:56:04;;;;;;;2.57;2.47;;;;;;;;;;4956446;29;20434;-91
2022/06/07 16:58:39;;;;;;;2.43;2.43;;;;;;;;;;4958043;29;20577;-92
2022/06/07 17:01:06;;;;;;;2.20;2.20;;;;;;;;;;4960170;29;20433;-91
2022/06/07 17:03:35;;;;;;;2.63;2.33;;;;;;;;;;4980878;28;20422;-90
2022/06/07 17:08:40;;;;;;;2.20;2.10;;;;;;;;;;5040437;23;20493;-93
2022/06/07 17:16:17;;;;;;;1.90;1.90;;;;;;;;;;5187611;23;20468;-94
2022/06/07 17:18:44;;;;;;;2.03;2.03;;;;;;;;;;4939569;29;20456;-91
2022/06/07 17:26:33;;;;;;;2.20;2.20;;;;;;;;;;5131253;23;20498;-94
2022/06/07 17:31:51;;;;;;;1.87;1.87;;;;;;;;;;5516333;23;21035;-92